sensor_id;sensor_type;location;lat;lon;timestamp;P1;durP1;ratioP1;P2;durP2;ratioP2
42030;SDS011;27709;52.036;5.906;2022-10-17T00:00:47;9.10;;;5.60;;
42030;SDS011;27709;52.036;5.906;2022-10-17T00:03:13;11.50;;;6.50;;
42030;SDS011;27709;52.036;5.906;2022-10-17T00:05:39;7.60;;;6.15;;
42030;SDS011;27709;52.036;5.906;2022-10-17T00:08:10;9.23;;;7.05;;
42030;SDS011;27709;52.036;5.906;2022-10-17T00:10:37;10.32;;;6.05;;
42030;SDS011;27709;52.036;5.906;2022-10-17T00:13:03;8.15;;;5.95;;
42030;SDS011;27709;52.036;5.906;2022-10-17T00:15:30;10.25;;;6.60;;
42030;SDS011;27709;52.036;5.906;2022-10-17T00:17:56;11.18;;;6.80;;
42030;SDS011;27709;52.036;5.906;2022-10-17T00:20:21;11.50;;;7.63;;
42030;SDS011;27709;52.036;5.906;2022-10-17T00:22:47;11.35;;;7.28;;
42030;SDS011;27709;52.036;5.906;2022-10-17T00:25:12;9.57;;;6.60;;
42030;SDS011;27709;52.036;5.906;2022-10-17T00:27:39;12.52;;;7.68;;
42030;SDS011;27709;52.036;5.906;2022-10-17T00:30:06;12.30;;;7.57;;
42030;SDS011;27709;52.036;5.906;2022-10-17T00:32:35;10.07;;;6.90;;
42030;SDS011;27709;52.036;5.906;2022-10-17T00:35:00;10.57;;;6.60;;
42030;SDS011;27709;52.036;5.906;2022-10-17T00:37:26;8.63;;;6.68;;
42030;SDS011;27709;52.036;5.906;2022-10-17T00:39:52;8.35;;;6.18;;
42030;SDS011;27709;52.036;5.906;2022-10-17T00:42:18;11.50;;;6.55;;
42030;SDS011;27709;52.036;5.906;2022-10-17T00:47:13;10.18;;;7.00;;
42030;SDS011;27709;52.036;5.906;2022-10-17T00:49:42;10.98;;;7.18;;
42030;SDS011;27709;52.036;5.906;2022-10-17T00:52:12;11.27;;;7.10;;
42030;SDS011;27709;52.036;5.906;2022-10-17T00:54:43;9.43;;;6.72;;
42030;SDS011;27709;52.036;5.906;2022-10-17T00:57:14;10.82;;;7.00;;
42030;SDS011;27709;52.036;5.906;2022-10-17T00:59:40;10.40;;;7.55;;
42030;SDS011;27709;52.036;5.906;2022-10-17T01:02:09;9.05;;;7.13;;
42030;SDS011;27709;52.036;5.906;2022-10-17T01:04:42;10.05;;;6.75;;
42030;SDS011;27709;52.036;5.906;2022-10-17T01:07:10;10.35;;;6.82;;
42030;SDS011;27709;52.036;5.906;2022-10-17T01:09:36;11.73;;;8.02;;
42030;SDS011;27709;52.036;5.906;2022-10-17T01:12:08;10.57;;;8.05;;
42030;SDS011;27709;52.036;5.906;2022-10-17T01:15:08;9.35;;;7.15;;
42030;SDS011;27709;52.036;5.906;2022-10-17T01:20:35;11.95;;;8.40;;
42030;SDS011;27709;52.036;5.906;2022-10-17T01:23:37;15.13;;;9.00;;
42030;SDS011;27709;52.036;5.906;2022-10-17T01:29:20;9.68;;;6.85;;
42030;SDS011;27709;52.036;5.906;2022-10-17T01:32:53;13.88;;;9.15;;
42030;SDS011;27709;52.036;5.906;2022-10-17T01:37:52;11.75;;;7.95;;
42030;SDS011;27709;52.036;5.906;2022-10-17T01:40:33;11.32;;;8.23;;
42030;SDS011;27709;52.036;5.906;2022-10-17T01:43:08;10.95;;;7.93;;
42030;SDS011;27709;52.036;5.906;2022-10-17T01:46:12;12.77;;;7.70;;
42030;SDS011;27709;52.036;5.906;2022-10-17T01:48:36;12.48;;;8.88;;
42030;SDS011;27709;52.036;5.906;2022-10-17T01:51:07;12.80;;;8.23;;
42030;SDS011;27709;52.036;5.906;2022-10-17T01:53:38;10.43;;;7.43;;
42030;SDS011;27709;52.036;5.906;2022-10-17T01:56:08;11.80;;;7.65;;
42030;SDS011;27709;52.036;5.906;2022-10-17T01:58:40;12.73;;;8.52;;
42030;SDS011;27709;52.036;5.906;2022-10-17T02:03:36;12.05;;;8.05;;
42030;SDS011;27709;52.036;5.906;2022-10-17T02:06:03;10.43;;;7.53;;
42030;SDS011;27709;52.036;5.906;2022-10-17T02:11:25;11.07;;;8.55;;
42030;SDS011;27709;52.036;5.906;2022-10-17T02:13:56;11.00;;;7.53;;
42030;SDS011;27709;52.036;5.906;2022-10-17T02:16:48;11.82;;;7.95;;
42030;SDS011;27709;52.036;5.906;2022-10-17T02:22:13;9.38;;;6.35;;
42030;SDS011;27709;52.036;5.906;2022-10-17T02:24:46;12.38;;;7.68;;
42030;SDS011;27709;52.036;5.906;2022-10-17T02:27:39;14.23;;;9.57;;
42030;SDS011;27709;52.036;5.906;2022-10-17T02:30:28;12.70;;;8.38;;
42030;SDS011;27709;52.036;5.906;2022-10-17T02:32:59;13.30;;;9.10;;
42030;SDS011;27709;52.036;5.906;2022-10-17T02:35:32;11.02;;;8.05;;
42030;SDS011;27709;52.036;5.906;2022-10-17T02:38:02;12.20;;;8.60;;
42030;SDS011;27709;52.036;5.906;2022-10-17T02:40:30;13.63;;;9.75;;
42030;SDS011;27709;52.036;5.906;2022-10-17T02:42:57;12.10;;;9.05;;
42030;SDS011;27709;52.036;5.906;2022-10-17T02:45:24;18.33;;;10.93;;
42030;SDS011;27709;52.036;5.906;2022-10-17T02:47:58;13.25;;;8.60;;
42030;SDS011;27709;52.036;5.906;2022-10-17T02:50:27;15.35;;;10.20;;
42030;SDS011;27709;52.036;5.906;2022-10-17T02:53:08;14.90;;;10.40;;
42030;SDS011;27709;52.036;5.906;2022-10-17T02:55:40;12.90;;;9.43;;
42030;SDS011;27709;52.036;5.906;2022-10-17T02:58:17;15.05;;;9.23;;
42030;SDS011;27709;52.036;5.906;2022-10-17T03:00:45;13.23;;;9.30;;
42030;SDS011;27709;52.036;5.906;2022-10-17T03:03:18;12.38;;;9.68;;
42030;SDS011;27709;52.036;5.906;2022-10-17T03:05:48;16.48;;;9.70;;
42030;SDS011;27709;52.036;5.906;2022-10-17T03:08:14;13.77;;;9.80;;
42030;SDS011;27709;52.036;5.906;2022-10-17T03:10:40;13.55;;;10.10;;
42030;SDS011;27709;52.036;5.906;2022-10-17T03:13:06;17.30;;;11.10;;
42030;SDS011;27709;52.036;5.906;2022-10-17T03:15:31;13.73;;;9.27;;
42030;SDS011;27709;52.036;5.906;2022-10-17T03:17:57;13.05;;;9.50;;
42030;SDS011;27709;52.036;5.906;2022-10-17T03:20:22;15.43;;;10.18;;
42030;SDS011;27709;52.036;5.906;2022-10-17T03:22:48;13.70;;;9.40;;
42030;SDS011;27709;52.036;5.906;2022-10-17T03:25:13;12.35;;;8.60;;
42030;SDS011;27709;52.036;5.906;2022-10-17T03:27:39;14.20;;;10.18;;
42030;SDS011;27709;52.036;5.906;2022-10-17T03:30:04;12.00;;;8.73;;
42030;SDS011;27709;52.036;5.906;2022-10-17T03:32:32;11.23;;;9.30;;
42030;SDS011;27709;52.036;5.906;2022-10-17T03:34:58;13.18;;;9.45;;
42030;SDS011;27709;52.036;5.906;2022-10-17T03:37:27;10.13;;;8.05;;
42030;SDS011;27709;52.036;5.906;2022-10-17T03:39:52;11.88;;;8.65;;
42030;SDS011;27709;52.036;5.906;2022-10-17T03:42:18;11.38;;;7.40;;
42030;SDS011;27709;52.036;5.906;2022-10-17T03:44:43;12.95;;;8.48;;
42030;SDS011;27709;52.036;5.906;2022-10-17T03:47:09;12.02;;;8.50;;
42030;SDS011;27709;52.036;5.906;2022-10-17T03:49:34;11.55;;;8.10;;
42030;SDS011;27709;52.036;5.906;2022-10-17T03:52:00;11.15;;;7.63;;
42030;SDS011;27709;52.036;5.906;2022-10-17T03:54:26;11.23;;;8.05;;
42030;SDS011;27709;52.036;5.906;2022-10-17T03:56:52;11.75;;;8.65;;
42030;SDS011;27709;52.036;5.906;2022-10-17T03:59:17;11.52;;;9.23;;
42030;SDS011;27709;52.036;5.906;2022-10-17T04:01:43;13.68;;;8.68;;
42030;SDS011;27709;52.036;5.906;2022-10-17T04:04:08;9.35;;;7.55;;
42030;SDS011;27709;52.036;5.906;2022-10-17T04:06:34;10.93;;;7.13;;
42030;SDS011;27709;52.036;5.906;2022-10-17T04:09:00;8.40;;;6.93;;
42030;SDS011;27709;52.036;5.906;2022-10-17T04:11:26;12.82;;;7.57;;
42030;SDS011;27709;52.036;5.906;2022-10-17T04:13:52;9.88;;;7.03;;
42030;SDS011;27709;52.036;5.906;2022-10-17T04:16:20;15.45;;;9.40;;
42030;SDS011;27709;52.036;5.906;2022-10-17T04:18:50;10.70;;;7.90;;
42030;SDS011;27709;52.036;5.906;2022-10-17T04:21:18;13.50;;;9.60;;
42030;SDS011;27709;52.036;5.906;2022-10-17T04:23:43;14.27;;;9.32;;
42030;SDS011;27709;52.036;5.906;2022-10-17T04:26:09;12.73;;;8.43;;
42030;SDS011;27709;52.036;5.906;2022-10-17T04:28:35;10.05;;;7.78;;
42030;SDS011;27709;52.036;5.906;2022-10-17T04:31:05;10.13;;;7.35;;
42030;SDS011;27709;52.036;5.906;2022-10-17T04:33:31;10.68;;;7.90;;
42030;SDS011;27709;52.036;5.906;2022-10-17T04:36:01;11.23;;;8.45;;
42030;SDS011;27709;52.036;5.906;2022-10-17T04:38:31;10.38;;;6.97;;
42030;SDS011;27709;52.036;5.906;2022-10-17T04:41:01;9.75;;;6.82;;
42030;SDS011;27709;52.036;5.906;2022-10-17T04:43:29;9.93;;;6.97;;
42030;SDS011;27709;52.036;5.906;2022-10-17T04:45:56;15.27;;;8.95;;
42030;SDS011;27709;52.036;5.906;2022-10-17T04:48:22;11.10;;;7.13;;
42030;SDS011;27709;52.036;5.906;2022-10-17T04:50:55;9.52;;;7.07;;
42030;SDS011;27709;52.036;5.906;2022-10-17T04:53:22;11.32;;;7.63;;
42030;SDS011;27709;52.036;5.906;2022-10-17T04:55:47;10.13;;;7.10;;
42030;SDS011;27709;52.036;5.906;2022-10-17T04:58:13;9.68;;;7.20;;
42030;SDS011;27709;52.036;5.906;2022-10-17T05:00:39;16.42;;;8.75;;
42030;SDS011;27709;52.036;5.906;2022-10-17T05:03:04;10.25;;;7.03;;
42030;SDS011;27709;52.036;5.906;2022-10-17T05:05:30;12.52;;;8.50;;
42030;SDS011;27709;52.036;5.906;2022-10-17T05:07:56;10.60;;;7.40;;
42030;SDS011;27709;52.036;5.906;2022-10-17T05:10:21;10.27;;;6.72;;
42030;SDS011;27709;52.036;5.906;2022-10-17T05:12:47;9.18;;;6.90;;
42030;SDS011;27709;52.036;5.906;2022-10-17T05:15:16;11.35;;;7.57;;
42030;SDS011;27709;52.036;5.906;2022-10-17T05:17:41;9.82;;;7.03;;
42030;SDS011;27709;52.036;5.906;2022-10-17T05:20:07;10.27;;;7.30;;
42030;SDS011;27709;52.036;5.906;2022-10-17T05:22:33;11.63;;;7.18;;
42030;SDS011;27709;52.036;5.906;2022-10-17T05:25:00;10.80;;;7.50;;
42030;SDS011;27709;52.036;5.906;2022-10-17T05:27:25;10.10;;;6.80;;
42030;SDS011;27709;52.036;5.906;2022-10-17T05:29:51;10.60;;;6.53;;
42030;SDS011;27709;52.036;5.906;2022-10-17T05:32:17;13.55;;;7.43;;
42030;SDS011;27709;52.036;5.906;2022-10-17T05:34:42;11.95;;;7.45;;
42030;SDS011;27709;52.036;5.906;2022-10-17T05:37:08;12.10;;;7.32;;
42030;SDS011;27709;52.036;5.906;2022-10-17T05:39:33;9.20;;;7.25;;
42030;SDS011;27709;52.036;5.906;2022-10-17T05:41:59;10.15;;;6.80;;
42030;SDS011;27709;52.036;5.906;2022-10-17T05:44:24;11.48;;;7.88;;
42030;SDS011;27709;52.036;5.906;2022-10-17T05:46:51;8.95;;;6.88;;
42030;SDS011;27709;52.036;5.906;2022-10-17T05:49:17;9.18;;;6.63;;
42030;SDS011;27709;52.036;5.906;2022-10-17T05:51:42;9.85;;;7.10;;
42030;SDS011;27709;52.036;5.906;2022-10-17T05:54:08;10.25;;;7.45;;
42030;SDS011;27709;52.036;5.906;2022-10-17T05:56:34;11.48;;;7.15;;
42030;SDS011;27709;52.036;5.906;2022-10-17T05:59:01;8.38;;;6.78;;
42030;SDS011;27709;52.036;5.906;2022-10-17T06:01:27;9.43;;;6.80;;
42030;SDS011;27709;52.036;5.906;2022-10-17T06:03:52;8.05;;;6.53;;
42030;SDS011;27709;52.036;5.906;2022-10-17T06:06:18;9.10;;;7.18;;
42030;SDS011;27709;52.036;5.906;2022-10-17T06:08:44;10.63;;;7.00;;
42030;SDS011;27709;52.036;5.906;2022-10-17T06:11:10;11.68;;;6.70;;
42030;SDS011;27709;52.036;5.906;2022-10-17T06:13:37;8.57;;;6.30;;
42030;SDS011;27709;52.036;5.906;2022-10-17T06:16:03;9.65;;;6.85;;
42030;SDS011;27709;52.036;5.906;2022-10-17T06:18:29;7.78;;;6.13;;
42030;SDS011;27709;52.036;5.906;2022-10-17T06:21:00;8.07;;;5.72;;
42030;SDS011;27709;52.036;5.906;2022-10-17T06:23:29;10.25;;;6.35;;
42030;SDS011;27709;52.036;5.906;2022-10-17T06:26:02;7.13;;;5.93;;
42030;SDS011;27709;52.036;5.906;2022-10-17T06:28:29;9.10;;;6.63;;
42030;SDS011;27709;52.036;5.906;2022-10-17T06:30:55;9.38;;;6.85;;
42030;SDS011;27709;52.036;5.906;2022-10-17T06:33:21;7.88;;;6.25;;
42030;SDS011;27709;52.036;5.906;2022-10-17T06:35:51;11.57;;;7.95;;
42030;SDS011;27709;52.036;5.906;2022-10-17T06:38:17;11.18;;;7.72;;
42030;SDS011;27709;52.036;5.906;2022-10-17T06:40:43;12.95;;;8.55;;
42030;SDS011;27709;52.036;5.906;2022-10-17T06:43:09;11.27;;;7.82;;
42030;SDS011;27709;52.036;5.906;2022-10-17T06:45:34;8.98;;;6.85;;
42030;SDS011;27709;52.036;5.906;2022-10-17T06:48:03;10.35;;;7.43;;
42030;SDS011;27709;52.036;5.906;2022-10-17T06:50:29;10.18;;;6.90;;
42030;SDS011;27709;52.036;5.906;2022-10-17T06:52:54;10.68;;;7.03;;
42030;SDS011;27709;52.036;5.906;2022-10-17T06:55:20;10.77;;;7.25;;
42030;SDS011;27709;52.036;5.906;2022-10-17T06:57:45;9.80;;;7.25;;
42030;SDS011;27709;52.036;5.906;2022-10-17T07:00:11;11.30;;;7.35;;
42030;SDS011;27709;52.036;5.906;2022-10-17T07:02:37;8.93;;;6.78;;
42030;SDS011;27709;52.036;5.906;2022-10-17T07:05:03;7.47;;;6.15;;
42030;SDS011;27709;52.036;5.906;2022-10-17T07:07:29;7.35;;;5.80;;
42030;SDS011;27709;52.036;5.906;2022-10-17T07:09:56;8.23;;;6.22;;
42030;SDS011;27709;52.036;5.906;2022-10-17T07:12:22;9.93;;;6.60;;
42030;SDS011;27709;52.036;5.906;2022-10-17T07:14:48;10.75;;;8.20;;
42030;SDS011;27709;52.036;5.906;2022-10-17T07:17:14;10.77;;;7.57;;
42030;SDS011;27709;52.036;5.906;2022-10-17T07:19:43;11.60;;;8.75;;
42030;SDS011;27709;52.036;5.906;2022-10-17T07:22:10;12.10;;;7.95;;
42030;SDS011;27709;52.036;5.906;2022-10-17T07:24:37;9.35;;;7.15;;
42030;SDS011;27709;52.036;5.906;2022-10-17T07:27:02;9.48;;;7.40;;
42030;SDS011;27709;52.036;5.906;2022-10-17T07:29:28;10.00;;;6.80;;
42030;SDS011;27709;52.036;5.906;2022-10-17T07:31:55;9.40;;;6.78;;
42030;SDS011;27709;52.036;5.906;2022-10-17T07:34:20;8.73;;;7.00;;
42030;SDS011;27709;52.036;5.906;2022-10-17T07:36:46;11.57;;;7.47;;
42030;SDS011;27709;52.036;5.906;2022-10-17T07:39:11;10.93;;;7.32;;
42030;SDS011;27709;52.036;5.906;2022-10-17T07:41:37;10.80;;;7.43;;
42030;SDS011;27709;52.036;5.906;2022-10-17T07:44:03;9.38;;;7.00;;
42030;SDS011;27709;52.036;5.906;2022-10-17T07:46:28;8.88;;;6.43;;
42030;SDS011;27709;52.036;5.906;2022-10-17T07:48:54;10.55;;;6.65;;
42030;SDS011;27709;52.036;5.906;2022-10-17T07:51:20;7.60;;;6.00;;
42030;SDS011;27709;52.036;5.906;2022-10-17T07:53:46;10.43;;;6.63;;
42030;SDS011;27709;52.036;5.906;2022-10-17T07:56:12;8.05;;;6.88;;
42030;SDS011;27709;52.036;5.906;2022-10-17T07:58:38;9.05;;;7.00;;
42030;SDS011;27709;52.036;5.906;2022-10-17T08:01:05;8.02;;;6.13;;
42030;SDS011;27709;52.036;5.906;2022-10-17T08:03:32;12.18;;;7.05;;
42030;SDS011;27709;52.036;5.906;2022-10-17T08:05:59;12.50;;;7.78;;
42030;SDS011;27709;52.036;5.906;2022-10-17T08:08:26;10.68;;;7.95;;
42030;SDS011;27709;52.036;5.906;2022-10-17T08:10:52;10.48;;;7.00;;
42030;SDS011;27709;52.036;5.906;2022-10-17T08:13:19;7.70;;;6.22;;
42030;SDS011;27709;52.036;5.906;2022-10-17T08:15:45;10.15;;;7.05;;
42030;SDS011;27709;52.036;5.906;2022-10-17T08:18:11;9.82;;;6.85;;
42030;SDS011;27709;52.036;5.906;2022-10-17T08:20:38;9.15;;;7.40;;
42030;SDS011;27709;52.036;5.906;2022-10-17T08:23:04;12.95;;;7.85;;
42030;SDS011;27709;52.036;5.906;2022-10-17T08:25:30;10.20;;;6.45;;
42030;SDS011;27709;52.036;5.906;2022-10-17T08:27:56;9.55;;;7.45;;
42030;SDS011;27709;52.036;5.906;2022-10-17T08:30:22;15.75;;;9.07;;
42030;SDS011;27709;52.036;5.906;2022-10-17T08:32:47;14.38;;;9.43;;
42030;SDS011;27709;52.036;5.906;2022-10-17T08:35:13;12.75;;;8.93;;
42030;SDS011;27709;52.036;5.906;2022-10-17T08:37:38;10.80;;;7.63;;
42030;SDS011;27709;52.036;5.906;2022-10-17T08:40:04;14.50;;;8.23;;
42030;SDS011;27709;52.036;5.906;2022-10-17T08:42:40;9.65;;;6.80;;
42030;SDS011;27709;52.036;5.906;2022-10-17T08:48:19;11.05;;;7.28;;
42030;SDS011;27709;52.036;5.906;2022-10-17T08:50:52;9.27;;;7.07;;
42030;SDS011;27709;52.036;5.906;2022-10-17T08:53:28;12.23;;;8.48;;
42030;SDS011;27709;52.036;5.906;2022-10-17T08:56:22;12.35;;;8.20;;
42030;SDS011;27709;52.036;5.906;2022-10-17T08:58:50;13.27;;;8.98;;
42030;SDS011;27709;52.036;5.906;2022-10-17T09:01:31;14.50;;;9.32;;
42030;SDS011;27709;52.036;5.906;2022-10-17T09:07:01;12.18;;;8.35;;
42030;SDS011;27709;52.036;5.906;2022-10-17T09:09:56;10.27;;;7.28;;
42030;SDS011;27709;52.036;5.906;2022-10-17T09:15:53;11.25;;;8.07;;
42030;SDS011;27709;52.036;5.906;2022-10-17T09:18:32;8.80;;;6.93;;
42030;SDS011;27709;52.036;5.906;2022-10-17T09:23:48;9.48;;;6.13;;
42030;SDS011;27709;52.036;5.906;2022-10-17T09:26:20;12.23;;;8.07;;
42030;SDS011;27709;52.036;5.906;2022-10-17T09:28:51;11.95;;;8.25;;
42030;SDS011;27709;52.036;5.906;2022-10-17T09:31:39;10.23;;;7.68;;
42030;SDS011;27709;52.036;5.906;2022-10-17T09:34:09;9.65;;;6.90;;
42030;SDS011;27709;52.036;5.906;2022-10-17T09:36:36;8.95;;;6.95;;
42030;SDS011;27709;52.036;5.906;2022-10-17T09:39:12;10.60;;;6.80;;
42030;SDS011;27709;52.036;5.906;2022-10-17T09:41:41;10.52;;;8.13;;
42030;SDS011;27709;52.036;5.906;2022-10-17T09:47:02;9.50;;;6.78;;
42030;SDS011;27709;52.036;5.906;2022-10-17T09:49:46;10.20;;;6.63;;
42030;SDS011;27709;52.036;5.906;2022-10-17T09:52:17;9.80;;;7.28;;
42030;SDS011;27709;52.036;5.906;2022-10-17T09:54:47;7.40;;;6.10;;
42030;SDS011;27709;52.036;5.906;2022-10-17T09:57:19;8.65;;;5.88;;
42030;SDS011;27709;52.036;5.906;2022-10-17T09:59:47;8.27;;;5.95;;
42030;SDS011;27709;52.036;5.906;2022-10-17T10:02:24;7.35;;;5.60;;
42030;SDS011;27709;52.036;5.906;2022-10-17T10:04:55;6.68;;;5.10;;
42030;SDS011;27709;52.036;5.906;2022-10-17T10:07:26;6.85;;;4.80;;
42030;SDS011;27709;52.036;5.906;2022-10-17T10:09:55;5.72;;;4.80;;
42030;SDS011;27709;52.036;5.906;2022-10-17T10:12:23;7.28;;;5.10;;
42030;SDS011;27709;52.036;5.906;2022-10-17T10:14:54;6.65;;;4.60;;
42030;SDS011;27709;52.036;5.906;2022-10-17T10:17:53;5.45;;;4.18;;
42030;SDS011;27709;52.036;5.906;2022-10-17T10:23:10;5.30;;;3.90;;
42030;SDS011;27709;52.036;5.906;2022-10-17T10:25:48;6.32;;;4.10;;
42030;SDS011;27709;52.036;5.906;2022-10-17T10:28:32;8.65;;;5.85;;
42030;SDS011;27709;52.036;5.906;2022-10-17T10:30:59;5.57;;;4.70;;
42030;SDS011;27709;52.036;5.906;2022-10-17T10:33:28;6.38;;;4.90;;
42030;SDS011;27709;52.036;5.906;2022-10-17T10:35:57;7.90;;;5.53;;
42030;SDS011;27709;52.036;5.906;2022-10-17T10:38:28;5.90;;;4.32;;
42030;SDS011;27709;52.036;5.906;2022-10-17T10:41:17;6.07;;;4.30;;
42030;SDS011;27709;52.036;5.906;2022-10-17T10:43:47;7.70;;;4.43;;
42030;SDS011;27709;52.036;5.906;2022-10-17T10:46:21;5.28;;;4.18;;
42030;SDS011;27709;52.036;5.906;2022-10-17T10:51:37;9.25;;;5.00;;
42030;SDS011;27709;52.036;5.906;2022-10-17T10:54:22;6.13;;;4.13;;
42030;SDS011;27709;52.036;5.906;2022-10-17T10:56:57;7.32;;;4.78;;
42030;SDS011;27709;52.036;5.906;2022-10-17T10:59:32;7.55;;;5.65;;
42030;SDS011;27709;52.036;5.906;2022-10-17T11:02:17;8.02;;;6.10;;
42030;SDS011;27709;52.036;5.906;2022-10-17T11:04:51;9.05;;;6.00;;
42030;SDS011;27709;52.036;5.906;2022-10-17T11:18:05;7.78;;;5.25;;
42030;SDS011;27709;52.036;5.906;2022-10-17T11:26:13;10.02;;;5.78;;
42030;SDS011;27709;52.036;5.906;2022-10-17T11:28:51;8.10;;;5.32;;
42030;SDS011;27709;52.036;5.906;2022-10-17T11:31:18;8.13;;;5.82;;
42030;SDS011;27709;52.036;5.906;2022-10-17T11:33:48;8.18;;;4.50;;
42030;SDS011;27709;52.036;5.906;2022-10-17T11:36:20;6.40;;;4.70;;
42030;SDS011;27709;52.036;5.906;2022-10-17T11:38:54;9.85;;;5.40;;
42030;SDS011;27709;52.036;5.906;2022-10-17T11:41:38;8.75;;;5.07;;
42030;SDS011;27709;52.036;5.906;2022-10-17T11:46:43;10.35;;;5.68;;
42030;SDS011;27709;52.036;5.906;2022-10-17T11:49:17;9.02;;;5.60;;
42030;SDS011;27709;52.036;5.906;2022-10-17T11:51:47;8.40;;;5.88;;
42030;SDS011;27709;52.036;5.906;2022-10-17T11:54:37;9.15;;;6.40;;
42030;SDS011;27709;52.036;5.906;2022-10-17T11:57:14;8.27;;;6.05;;
42030;SDS011;27709;52.036;5.906;2022-10-17T12:00:21;8.95;;;5.85;;
42030;SDS011;27709;52.036;5.906;2022-10-17T12:05:38;9.25;;;6.22;;
42030;SDS011;27709;52.036;5.906;2022-10-17T12:13:49;12.00;;;7.05;;
42030;SDS011;27709;52.036;5.906;2022-10-17T12:18:49;11.48;;;7.43;;
42030;SDS011;27709;52.036;5.906;2022-10-17T12:27:20;7.90;;;6.15;;
42030;SDS011;27709;52.036;5.906;2022-10-17T12:29:46;8.95;;;5.75;;
42030;SDS011;27709;52.036;5.906;2022-10-17T12:32:13;9.07;;;6.80;;
42030;SDS011;27709;52.036;5.906;2022-10-17T12:34:39;7.25;;;5.35;;
42030;SDS011;27709;52.036;5.906;2022-10-17T12:37:32;10.23;;;7.03;;
42030;SDS011;27709;52.036;5.906;2022-10-17T12:48:29;9.32;;;6.22;;
42030;SDS011;27709;52.036;5.906;2022-10-17T12:58:44;8.85;;;5.90;;
42030;SDS011;27709;52.036;5.906;2022-10-17T13:01:21;11.02;;;7.15;;
42030;SDS011;27709;52.036;5.906;2022-10-17T13:03:58;12.13;;;7.57;;
42030;SDS011;27709;52.036;5.906;2022-10-17T13:06:30;9.25;;;6.93;;
42030;SDS011;27709;52.036;5.906;2022-10-17T13:11:47;11.75;;;8.70;;
42030;SDS011;27709;52.036;5.906;2022-10-17T13:14:15;9.07;;;6.93;;
42030;SDS011;27709;52.036;5.906;2022-10-17T13:16:55;11.25;;;7.95;;
42030;SDS011;27709;52.036;5.906;2022-10-17T13:19:31;10.40;;;8.45;;
42030;SDS011;27709;52.036;5.906;2022-10-17T13:22:13;10.93;;;8.00;;
42030;SDS011;27709;52.036;5.906;2022-10-17T13:24:43;8.57;;;6.95;;
42030;SDS011;27709;52.036;5.906;2022-10-17T13:27:23;9.40;;;7.50;;
42030;SDS011;27709;52.036;5.906;2022-10-17T13:29:56;8.27;;;7.10;;
42030;SDS011;27709;52.036;5.906;2022-10-17T13:32:23;9.65;;;7.60;;
42030;SDS011;27709;52.036;5.906;2022-10-17T13:35:07;10.73;;;8.25;;
42030;SDS011;27709;52.036;5.906;2022-10-17T13:37:41;9.05;;;7.80;;
42030;SDS011;27709;52.036;5.906;2022-10-17T13:40:15;9.10;;;8.10;;
42030;SDS011;27709;52.036;5.906;2022-10-17T13:42:42;10.43;;;8.10;;
42030;SDS011;27709;52.036;5.906;2022-10-17T13:45:20;10.98;;;8.40;;
42030;SDS011;27709;52.036;5.906;2022-10-17T13:47:52;13.57;;;9.40;;
42030;SDS011;27709;52.036;5.906;2022-10-17T13:50:20;12.60;;;10.10;;
42030;SDS011;27709;52.036;5.906;2022-10-17T13:53:04;11.77;;;7.68;;
42030;SDS011;27709;52.036;5.906;2022-10-17T13:55:56;11.05;;;8.30;;
42030;SDS011;27709;52.036;5.906;2022-10-17T13:58:31;11.73;;;9.38;;
42030;SDS011;27709;52.036;5.906;2022-10-17T14:01:04;12.93;;;9.15;;
42030;SDS011;27709;52.036;5.906;2022-10-17T14:03:31;11.15;;;8.60;;
42030;SDS011;27709;52.036;5.906;2022-10-17T14:06:05;10.02;;;8.57;;
42030;SDS011;27709;52.036;5.906;2022-10-17T14:11:22;10.98;;;9.10;;
42030;SDS011;27709;52.036;5.906;2022-10-17T14:13:54;10.20;;;8.70;;
42030;SDS011;27709;52.036;5.906;2022-10-17T14:16:21;11.98;;;10.02;;
42030;SDS011;27709;52.036;5.906;2022-10-17T14:18:48;10.07;;;8.85;;
42030;SDS011;27709;52.036;5.906;2022-10-17T14:21:19;11.00;;;8.43;;
42030;SDS011;27709;52.036;5.906;2022-10-17T14:23:47;10.32;;;8.57;;
42030;SDS011;27709;52.036;5.906;2022-10-17T14:26:15;12.77;;;9.32;;
42030;SDS011;27709;52.036;5.906;2022-10-17T14:28:44;10.43;;;8.93;;
42030;SDS011;27709;52.036;5.906;2022-10-17T14:31:19;11.88;;;9.30;;
42030;SDS011;27709;52.036;5.906;2022-10-17T14:33:49;12.50;;;9.68;;
42030;SDS011;27709;52.036;5.906;2022-10-17T14:36:15;12.85;;;9.48;;
42030;SDS011;27709;52.036;5.906;2022-10-17T14:38:45;11.80;;;9.18;;
42030;SDS011;27709;52.036;5.906;2022-10-17T14:41:19;13.82;;;10.75;;
42030;SDS011;27709;52.036;5.906;2022-10-17T14:43:54;12.05;;;9.45;;
42030;SDS011;27709;52.036;5.906;2022-10-17T14:46:24;11.50;;;9.32;;
42030;SDS011;27709;52.036;5.906;2022-10-17T14:48:51;11.25;;;9.73;;
42030;SDS011;27709;52.036;5.906;2022-10-17T14:51:19;16.63;;;12.80;;
42030;SDS011;27709;52.036;5.906;2022-10-17T14:56:42;12.88;;;10.13;;
42030;SDS011;27709;52.036;5.906;2022-10-17T14:59:15;9.52;;;8.38;;
42030;SDS011;27709;52.036;5.906;2022-10-17T15:01:46;11.20;;;9.32;;
42030;SDS011;27709;52.036;5.906;2022-10-17T15:04:13;10.60;;;8.88;;
42030;SDS011;27709;52.036;5.906;2022-10-17T15:06:40;10.07;;;8.88;;
42030;SDS011;27709;52.036;5.906;2022-10-17T15:09:06;11.63;;;9.07;;
42030;SDS011;27709;52.036;5.906;2022-10-17T15:11:33;11.35;;;8.80;;
42030;SDS011;27709;52.036;5.906;2022-10-17T15:13:59;10.48;;;8.50;;
42030;SDS011;27709;52.036;5.906;2022-10-17T15:16:26;14.43;;;8.75;;
42030;SDS011;27709;52.036;5.906;2022-10-17T15:18:55;11.60;;;9.27;;
42030;SDS011;27709;52.036;5.906;2022-10-17T15:21:22;9.85;;;8.57;;
42030;SDS011;27709;52.036;5.906;2022-10-17T15:23:48;12.25;;;9.13;;
42030;SDS011;27709;52.036;5.906;2022-10-17T15:26:16;11.30;;;8.93;;
42030;SDS011;27709;52.036;5.906;2022-10-17T15:28:49;11.30;;;7.93;;
42030;SDS011;27709;52.036;5.906;2022-10-17T15:31:16;8.75;;;7.88;;
42030;SDS011;27709;52.036;5.906;2022-10-17T15:33:43;8.48;;;7.57;;
42030;SDS011;27709;52.036;5.906;2022-10-17T15:36:23;10.55;;;8.15;;
42030;SDS011;27709;52.036;5.906;2022-10-17T15:38:51;12.45;;;9.43;;
42030;SDS011;27709;52.036;5.906;2022-10-17T15:41:19;10.48;;;8.23;;
42030;SDS011;27709;52.036;5.906;2022-10-17T15:43:46;11.18;;;9.13;;
42030;SDS011;27709;52.036;5.906;2022-10-17T15:46:13;13.45;;;10.07;;
42030;SDS011;27709;52.036;5.906;2022-10-17T15:48:42;12.75;;;10.05;;
42030;SDS011;27709;52.036;5.906;2022-10-17T15:51:08;10.40;;;9.30;;
42030;SDS011;27709;52.036;5.906;2022-10-17T15:53:34;10.90;;;9.80;;
42030;SDS011;27709;52.036;5.906;2022-10-17T15:56:00;12.77;;;9.77;;
42030;SDS011;27709;52.036;5.906;2022-10-17T15:58:27;11.32;;;9.30;;
42030;SDS011;27709;52.036;5.906;2022-10-17T16:00:57;13.23;;;10.30;;
42030;SDS011;27709;52.036;5.906;2022-10-17T16:03:23;10.85;;;9.00;;
42030;SDS011;27709;52.036;5.906;2022-10-17T16:05:49;11.00;;;9.35;;
42030;SDS011;27709;52.036;5.906;2022-10-17T16:08:14;10.27;;;8.77;;
42030;SDS011;27709;52.036;5.906;2022-10-17T16:10:39;11.07;;;8.88;;
42030;SDS011;27709;52.036;5.906;2022-10-17T16:13:05;11.35;;;8.88;;
42030;SDS011;27709;52.036;5.906;2022-10-17T16:15:33;11.18;;;9.48;;
42030;SDS011;27709;52.036;5.906;2022-10-17T16:17:59;12.30;;;10.30;;
42030;SDS011;27709;52.036;5.906;2022-10-17T16:20:24;11.88;;;9.77;;
42030;SDS011;27709;52.036;5.906;2022-10-17T16:22:50;11.95;;;10.10;;
42030;SDS011;27709;52.036;5.906;2022-10-17T16:25:24;13.27;;;10.13;;
42030;SDS011;27709;52.036;5.906;2022-10-17T16:27:56;14.52;;;11.70;;
42030;SDS011;27709;52.036;5.906;2022-10-17T16:30:24;13.10;;;11.27;;
42030;SDS011;27709;52.036;5.906;2022-10-17T16:32:51;15.45;;;11.45;;
42030;SDS011;27709;52.036;5.906;2022-10-17T16:35:21;11.82;;;10.25;;